createdAt,value
2022-09-02T00:01:28.743Z,18.25
2022-09-02T00:03:54.967Z,18.22
2022-09-02T00:06:21.210Z,18.26
2022-09-02T00:08:47.895Z,18.27
2022-09-02T00:11:14.051Z,18.27
2022-09-02T00:13:41.424Z,18.16
2022-09-02T00:16:07.640Z,18.17
2022-09-02T00:18:33.841Z,18.18
2022-09-02T00:21:01.596Z,18.17
2022-09-02T00:23:27.797Z,18.19
2022-09-02T00:25:53.932Z,18.25
2022-09-02T00:28:20.089Z,18.12
2022-09-02T00:30:46.441Z,18.12
2022-09-02T00:33:12.573Z,18.06
2022-09-02T00:35:38.723Z,18.08
2022-09-02T00:38:04.869Z,18.09
2022-09-02T00:40:31.061Z,18.09
2022-09-02T00:42:57.224Z,18.09
2022-09-02T00:45:23.400Z,18.01
2022-09-02T00:47:49.546Z,17.97
2022-09-02T00:50:15.677Z,17.96
2022-09-02T00:52:41.828Z,17.95
2022-09-02T00:55:07.966Z,17.93
2022-09-02T00:57:34.109Z,17.89
2022-09-02T01:00:00.745Z,17.92
2022-09-02T01:02:26.919Z,17.95
2022-09-02T01:04:53.084Z,17.99
2022-09-02T01:07:19.252Z,17.92
2022-09-02T01:09:45.387Z,17.92
2022-09-02T01:12:11.538Z,17.85
2022-09-02T01:14:38.040Z,17.91
2022-09-02T01:17:04.170Z,17.86
2022-09-02T01:19:30.294Z,17.76
2022-09-02T01:21:56.451Z,17.76
2022-09-02T01:24:22.598Z,17.80
2022-09-02T01:26:48.727Z,17.77
2022-09-02T01:29:14.864Z,17.79
2022-09-02T01:31:41.090Z,17.76
2022-09-02T01:34:07.338Z,17.77
2022-09-02T01:36:33.489Z,17.77
2022-09-02T01:38:59.625Z,17.75
2022-09-02T01:41:25.758Z,17.61
2022-09-02T01:43:51.908Z,17.67
2022-09-02T01:46:19.797Z,17.66
2022-09-02T01:48:45.970Z,17.62
2022-09-02T01:51:12.127Z,17.65
2022-09-02T01:53:38.322Z,17.59
2022-09-02T01:56:04.446Z,17.60
2022-09-02T01:58:30.612Z,17.61
2022-09-02T02:00:56.819Z,17.56
2022-09-02T02:03:23.075Z,17.59
2022-09-02T02:05:49.354Z,17.61
2022-09-02T02:08:15.502Z,17.63
2022-09-02T02:10:41.649Z,17.55
2022-09-02T02:13:07.813Z,17.60
2022-09-02T02:15:33.948Z,17.56
2022-09-02T02:18:00.089Z,17.58
2022-09-02T02:20:26.244Z,17.56
2022-09-02T02:22:52.382Z,17.62
2022-09-02T02:25:18.526Z,17.58
2022-09-02T02:27:44.668Z,17.59
2022-09-02T02:30:10.792Z,17.57
2022-09-02T02:32:36.925Z,17.58
2022-09-02T02:35:03.087Z,17.57
2022-09-02T02:37:29.208Z,17.62
2022-09-02T02:39:55.339Z,17.60
2022-09-02T02:42:21.496Z,17.56
2022-09-02T02:44:47.627Z,17.58
2022-09-02T02:47:13.765Z,17.54
2022-09-02T02:49:39.929Z,17.56
2022-09-02T02:52:06.083Z,17.57
2022-09-02T02:54:35.057Z,17.57
2022-09-02T02:57:01.528Z,17.55
2022-09-02T02:59:29.357Z,17.51
2022-09-02T03:01:55.650Z,17.53
2022-09-02T03:04:21.938Z,17.51
2022-09-02T03:06:48.052Z,17.51
2022-09-02T03:09:14.190Z,17.52
2022-09-02T03:11:40.357Z,17.46
2022-09-02T03:14:06.502Z,17.45
2022-09-02T03:16:32.689Z,17.49
2022-09-02T03:18:59.234Z,17.44
2022-09-02T03:21:25.370Z,17.50
2022-09-02T03:23:51.504Z,17.60
2022-09-02T03:26:17.878Z,17.45
2022-09-02T03:28:45.169Z,17.40
2022-09-02T03:31:11.343Z,17.46
2022-09-02T03:33:37.555Z,17.40
2022-09-02T03:36:03.699Z,17.38
2022-09-02T03:38:29.827Z,17.39
2022-09-02T03:40:55.979Z,17.39
2022-09-02T03:43:22.188Z,17.37
2022-09-02T03:45:48.453Z,17.33
2022-09-02T03:48:14.638Z,17.20
2022-09-02T03:50:40.779Z,17.35
2022-09-02T03:53:06.918Z,17.35
2022-09-02T03:55:33.064Z,17.37
2022-09-02T03:57:59.193Z,17.33
2022-09-02T04:00:25.312Z,17.32
2022-09-02T04:02:51.489Z,17.30
2022-09-02T04:05:17.638Z,17.32
2022-09-02T04:07:43.766Z,17.31
2022-09-02T04:10:13.227Z,17.31
2022-09-02T04:12:39.386Z,17.31
2022-09-02T04:15:05.540Z,17.33
2022-09-02T04:17:31.697Z,17.33
2022-09-02T04:19:57.841Z,17.32
2022-09-02T04:22:23.977Z,17.33
2022-09-02T04:24:50.177Z,17.35
2022-09-02T04:27:16.309Z,17.32
2022-09-02T04:29:42.456Z,17.34
2022-09-02T04:32:08.611Z,17.36
2022-09-02T04:34:34.762Z,17.36
2022-09-02T04:37:00.895Z,17.34
2022-09-02T04:39:27.057Z,17.38
2022-09-02T04:41:53.185Z,17.57
2022-09-02T04:44:19.328Z,17.53
2022-09-02T04:46:45.564Z,17.65
2022-09-02T04:49:11.734Z,17.65
2022-09-02T04:51:37.853Z,17.82
2022-09-02T04:54:04.019Z,17.55
2022-09-02T04:56:30.140Z,17.53
2022-09-02T04:58:56.289Z,17.57
2022-09-02T05:01:22.496Z,17.62
2022-09-02T05:03:48.661Z,17.61
2022-09-02T05:06:14.790Z,17.65
2022-09-02T05:08:41.429Z,17.68
2022-09-02T05:11:07.559Z,17.72
2022-09-02T05:13:33.677Z,17.75
2022-09-02T05:15:59.863Z,17.79
2022-09-02T05:18:26.004Z,17.85
2022-09-02T05:20:52.138Z,17.86
2022-09-02T05:23:18.339Z,17.88
2022-09-02T05:25:44.549Z,17.91
2022-09-02T05:28:10.678Z,17.88
2022-09-02T05:30:36.886Z,17.86
2022-09-02T05:33:03.028Z,17.76
2022-09-02T05:35:29.510Z,17.97
2022-09-02T05:38:00.245Z,18.00
2022-09-02T05:40:28.918Z,17.95
2022-09-02T05:42:55.204Z,17.85
2022-09-02T05:45:21.357Z,18.02
2022-09-02T05:47:47.484Z,17.99
2022-09-02T05:50:14.345Z,18.05
2022-09-02T05:52:40.561Z,17.89
2022-09-02T05:55:06.687Z,17.83
2022-09-02T05:57:32.840Z,17.99
2022-09-02T05:59:59.002Z,18.05
2022-09-02T06:02:25.280Z,17.84
2022-09-02T06:04:51.579Z,17.80
2022-09-02T06:07:17.738Z,17.82
2022-09-02T06:09:43.876Z,17.96
2022-09-02T06:12:10.023Z,18.13
2022-09-02T06:14:36.184Z,18.08
2022-09-02T06:17:02.321Z,18.13
2022-09-02T06:19:30.118Z,18.05
2022-09-02T06:21:56.263Z,18.05
2022-09-02T06:24:22.430Z,18.13
2022-09-02T06:26:48.580Z,18.19
2022-09-02T06:29:14.786Z,18.26
2022-09-02T06:31:40.930Z,18.29
2022-09-02T06:34:07.070Z,18.36
2022-09-02T06:36:33.221Z,18.43
2022-09-02T06:38:59.370Z,18.48
2022-09-02T06:41:25.501Z,18.59
2022-09-02T06:43:51.663Z,18.66
2022-09-02T06:46:20.440Z,18.74
2022-09-02T06:48:46.588Z,18.80
2022-09-02T06:51:12.728Z,18.88
2022-09-02T06:53:38.868Z,18.98
2022-09-02T06:56:04.997Z,19.04
2022-09-02T06:58:31.153Z,19.13
2022-09-02T07:00:57.364Z,19.18
2022-09-02T07:03:23.609Z,19.21
2022-09-02T07:05:49.793Z,19.26
2022-09-02T07:08:15.939Z,19.28
2022-09-02T07:10:42.086Z,19.33
2022-09-02T07:13:08.525Z,19.44
2022-09-02T07:15:34.658Z,19.50
2022-09-02T07:18:00.810Z,19.58
2022-09-02T07:20:26.960Z,19.56
2022-09-02T07:22:53.092Z,19.65
2022-09-02T07:25:19.234Z,19.66
2022-09-02T07:27:45.385Z,19.71
2022-09-02T07:30:11.525Z,19.75
2022-09-02T07:32:37.769Z,19.76
2022-09-02T07:35:04.410Z,19.78
2022-09-02T07:37:30.561Z,19.81
2022-09-02T07:39:56.704Z,19.90
2022-09-02T07:42:22.875Z,19.90
2022-09-02T07:44:49.034Z,19.92
2022-09-02T07:47:15.186Z,19.97
2022-09-02T07:52:27.441Z,20.22
2022-09-02T07:54:53.610Z,20.26
2022-09-02T07:57:19.738Z,20.32
2022-09-02T07:59:45.856Z,20.42
2022-09-02T08:02:12.072Z,20.45
2022-09-02T08:04:38.245Z,20.51
2022-09-02T08:07:04.375Z,20.65
2022-09-02T08:09:30.550Z,20.75
2022-09-02T08:11:56.689Z,20.85
2022-09-02T08:14:22.858Z,20.76
2022-09-02T08:16:51.327Z,20.87
2022-09-02T08:19:17.542Z,21.01
2022-09-02T08:21:43.690Z,21.05
2022-09-02T08:24:09.843Z,21.14
2022-09-02T08:26:35.968Z,21.08
2022-09-02T08:29:02.104Z,21.18
2022-09-02T08:31:28.290Z,21.32
2022-09-02T08:33:54.489Z,21.37
2022-09-02T08:36:20.613Z,21.44
2022-09-02T08:38:46.756Z,21.45
2022-09-02T08:41:12.897Z,21.56
2022-09-02T08:43:39.024Z,21.73
2022-09-02T08:46:05.370Z,21.79
2022-09-02T08:48:31.669Z,21.67
2022-09-02T08:50:57.807Z,21.67
2022-09-02T08:53:24.000Z,21.69
2022-09-02T08:55:50.216Z,21.94
2022-09-02T08:58:16.352Z,21.95
2022-09-02T09:00:42.594Z,22.12
2022-09-02T09:03:08.791Z,22.21
2022-09-02T09:05:34.921Z,22.31
2022-09-02T09:08:01.077Z,22.42
2022-09-02T09:10:27.197Z,22.49
2022-09-02T09:12:53.328Z,22.61
2022-09-02T09:15:19.769Z,22.67
2022-09-02T09:17:45.907Z,22.74
2022-09-02T09:20:12.056Z,22.60
2022-09-02T09:22:38.237Z,22.71
2022-09-02T09:25:04.365Z,22.85
2022-09-02T09:27:30.517Z,22.92
2022-09-02T09:29:56.670Z,22.94
2022-09-02T09:32:22.864Z,22.94
2022-09-02T09:34:49.000Z,22.83
2022-09-02T09:37:15.223Z,22.94
2022-09-02T09:39:41.353Z,23.13
2022-09-02T09:42:07.490Z,23.24
2022-09-02T09:44:33.647Z,23.34
2022-09-02T09:46:59.768Z,23.34
2022-09-02T09:49:25.917Z,23.53
2022-09-02T09:51:52.082Z,23.50
2022-09-02T09:54:18.233Z,23.59
2022-09-02T09:56:44.444Z,23.76
2022-09-02T09:59:11.007Z,23.88
2022-09-02T10:01:37.134Z,23.86
2022-09-02T10:04:04.960Z,23.84
2022-09-02T10:06:32.939Z,23.97
2022-09-02T10:08:59.066Z,24.02
2022-09-02T10:11:25.222Z,24.04
2022-09-02T10:13:51.384Z,24.06
2022-09-02T10:16:17.547Z,24.22
2022-09-02T10:18:44.816Z,24.12
2022-09-02T10:21:16.195Z,24.21
2022-09-02T10:23:42.593Z,24.24
2022-09-02T10:26:08.733Z,24.32
2022-09-02T10:28:34.867Z,24.17
2022-09-02T10:31:01.002Z,24.10
2022-09-02T10:33:27.131Z,24.06
2022-09-02T10:35:53.701Z,23.97
2022-09-02T10:38:19.913Z,23.99
2022-09-02T10:40:46.149Z,24.11
2022-09-02T10:43:12.380Z,24.08
2022-09-02T10:45:38.515Z,24.14
2022-09-02T10:48:04.637Z,24.17
2022-09-02T10:50:30.800Z,24.10
2022-09-02T10:52:56.942Z,24.16
2022-09-02T10:55:23.069Z,24.11
2022-09-02T10:57:49.234Z,24.17
2022-09-02T11:00:15.375Z,24.12
2022-09-02T11:02:41.505Z,24.20
2022-09-02T11:05:07.659Z,24.38
2022-09-02T11:07:33.802Z,24.50
2022-09-02T11:09:59.930Z,24.58
2022-09-02T11:12:26.098Z,24.56
2022-09-02T11:14:52.220Z,24.77
2022-09-02T11:17:18.377Z,24.83
2022-09-02T11:19:44.618Z,24.84
2022-09-02T11:22:11.023Z,24.76
2022-09-02T11:24:37.566Z,24.72
2022-09-02T11:27:04.426Z,24.59
2022-09-02T11:29:32.490Z,24.69
2022-09-02T11:31:59.017Z,24.85
2022-09-02T11:34:25.199Z,24.81
2022-09-02T11:36:51.327Z,25.11
2022-09-02T11:39:25.772Z,25.08
2022-09-02T11:41:56.966Z,24.95
2022-09-02T11:44:23.778Z,24.84
2022-09-02T11:46:51.135Z,25.03
2022-09-02T11:49:17.325Z,25.18
2022-09-02T11:51:43.466Z,25.18
2022-09-02T11:54:09.604Z,25.22
2022-09-02T11:56:36.623Z,25.28
2022-09-02T11:59:02.883Z,25.51
2022-09-02T12:01:29.646Z,25.48
2022-09-02T12:06:42.778Z,25.22
2022-09-02T12:09:09.041Z,25.35
2022-09-02T12:11:35.180Z,25.58
2022-09-02T12:14:04.052Z,25.55
2022-09-02T12:16:30.997Z,25.68
2022-09-02T12:18:57.200Z,25.67
2022-09-02T12:21:23.611Z,25.66
2022-09-02T12:23:50.088Z,25.84
2022-09-02T12:26:16.262Z,25.95
2022-09-02T12:28:42.412Z,25.92
2022-09-02T12:31:08.757Z,25.97
2022-09-02T12:33:35.180Z,26.06
2022-09-02T12:36:02.024Z,26.18
2022-09-02T12:38:28.238Z,26.25
2022-09-02T12:40:54.420Z,26.28
2022-09-02T12:43:20.600Z,26.25
2022-09-02T12:45:46.750Z,26.28
2022-09-02T12:48:16.066Z,26.33
2022-09-02T12:50:42.196Z,26.34
2022-09-02T12:53:08.444Z,26.50
2022-09-02T12:55:34.564Z,26.50
2022-09-02T12:58:00.714Z,26.42
2022-09-02T13:00:26.888Z,26.33
2022-09-02T13:02:53.087Z,26.26
2022-09-02T13:05:19.231Z,26.23
2022-09-02T13:07:45.399Z,26.26
2022-09-02T13:10:11.610Z,26.19
2022-09-02T13:12:37.748Z,26.16
2022-09-02T13:15:03.921Z,26.13
2022-09-02T13:17:36.460Z,26.16
2022-09-02T13:20:03.172Z,26.06
2022-09-02T13:22:31.108Z,26.08
2022-09-02T13:24:57.521Z,26.02
2022-09-02T13:27:23.732Z,26.00
2022-09-02T13:29:49.950Z,25.92
2022-09-02T13:32:16.089Z,25.98
2022-09-02T13:34:42.233Z,26.26
2022-09-02T13:37:08.371Z,26.17
2022-09-02T13:39:34.506Z,26.11
2022-09-02T13:42:00.649Z,26.13
2022-09-02T13:44:27.316Z,26.07
2022-09-02T13:46:53.451Z,26.01
2022-09-02T13:49:22.719Z,25.95
2022-09-02T13:51:48.919Z,25.93
2022-09-02T13:54:23.404Z,25.93
2022-09-02T13:56:50.125Z,25.94
2022-09-02T13:59:16.272Z,25.81
2022-09-02T14:01:42.578Z,25.65
2022-09-02T14:04:08.824Z,25.63
2022-09-02T14:06:36.172Z,25.48
2022-09-02T14:09:02.317Z,25.55
2022-09-02T14:11:28.473Z,25.65
2022-09-02T14:13:54.611Z,25.68
2022-09-02T14:16:20.745Z,25.61
2022-09-02T14:18:46.900Z,25.62
2022-09-02T14:21:13.042Z,25.60
2022-09-02T14:23:39.169Z,25.62
2022-09-02T14:26:05.325Z,25.72
2022-09-02T14:28:31.456Z,25.87
2022-09-02T14:30:57.615Z,26.04
2022-09-02T14:33:23.807Z,26.13
2022-09-02T14:35:49.955Z,26.44
2022-09-02T14:38:16.111Z,26.70
2022-09-02T14:40:42.282Z,27.06
2022-09-02T14:43:08.532Z,27.25
2022-09-02T14:45:34.675Z,27.57
2022-09-02T14:48:00.820Z,27.88
2022-09-02T14:50:26.954Z,28.18
2022-09-02T14:52:53.089Z,28.32
2022-09-02T14:55:19.245Z,28.93
2022-09-02T14:57:45.376Z,29.19
2022-09-02T15:00:11.997Z,30.19
2022-09-02T15:02:38.146Z,31.29
2022-09-02T15:05:04.380Z,32.88
2022-09-02T15:07:30.604Z,34.52
2022-09-02T15:09:56.788Z,35.58
2022-09-02T15:12:22.925Z,36.37
2022-09-02T15:14:49.058Z,36.14
2022-09-02T15:17:15.215Z,35.73
2022-09-02T15:19:41.358Z,36.66
2022-09-02T15:22:07.496Z,36.71
2022-09-02T15:24:34.101Z,36.64
2022-09-02T15:27:00.222Z,36.72
2022-09-02T15:29:28.983Z,36.99
2022-09-02T15:31:55.342Z,36.77
2022-09-02T15:34:24.718Z,36.65
2022-09-02T15:36:50.849Z,36.17
2022-09-02T15:39:17.020Z,35.63
2022-09-02T15:41:43.203Z,33.90
2022-09-02T15:44:09.354Z,35.83
2022-09-02T15:46:35.678Z,36.14
2022-09-02T15:49:02.871Z,35.86
2022-09-02T15:51:29.232Z,35.68
2022-09-02T15:53:55.393Z,35.94
2022-09-02T15:56:21.524Z,34.68
2022-09-02T15:58:47.667Z,35.81
2022-09-02T16:01:13.932Z,36.15
2022-09-02T16:03:40.173Z,35.96
2022-09-02T16:06:06.311Z,35.57
2022-09-02T16:08:32.455Z,35.53
2022-09-02T16:10:58.596Z,34.91
2022-09-02T16:13:24.728Z,34.18
2022-09-02T16:15:50.876Z,33.75
2022-09-02T16:18:17.010Z,33.52
2022-09-02T16:20:43.187Z,33.39
2022-09-02T16:23:09.347Z,33.22
2022-09-02T16:25:35.479Z,33.32
2022-09-02T16:28:01.625Z,33.13
2022-09-02T16:30:27.821Z,33.69
2022-09-02T16:32:53.981Z,34.15
2022-09-02T16:35:20.129Z,34.54
2022-09-02T16:37:46.578Z,35.36
2022-09-02T16:40:12.713Z,35.44
2022-09-02T16:42:38.876Z,35.53
2022-09-02T16:45:05.035Z,35.23
2022-09-02T16:47:31.161Z,34.84
2022-09-02T16:49:57.284Z,34.35
2022-09-02T16:52:23.538Z,33.76
2022-09-02T16:54:49.695Z,33.29
2022-09-02T16:57:15.853Z,32.92
2022-09-02T16:59:42.022Z,32.77
2022-09-02T17:02:08.219Z,32.89
2022-09-02T17:04:34.415Z,32.98
2022-09-02T17:07:00.574Z,32.78
2022-09-02T17:09:26.708Z,32.46
2022-09-02T17:11:54.399Z,31.94
2022-09-02T17:14:20.633Z,32.36
2022-09-02T17:16:46.895Z,32.36
2022-09-02T17:19:13.142Z,32.36
2022-09-02T17:21:39.304Z,31.81
2022-09-02T17:24:05.445Z,31.25
2022-09-02T17:26:31.621Z,30.70
2022-09-02T17:28:57.785Z,30.34
2022-09-02T17:31:23.926Z,30.00
2022-09-02T17:33:50.063Z,29.80
2022-09-02T17:36:16.217Z,29.49
2022-09-02T17:38:42.787Z,29.27
2022-09-02T17:41:08.923Z,29.32
2022-09-02T17:43:35.083Z,29.36
2022-09-02T17:46:01.243Z,29.58
2022-09-02T17:48:41.678Z,29.64
2022-09-02T17:51:13.523Z,29.51
2022-09-02T17:53:45.923Z,29.21
2022-09-02T17:56:12.361Z,28.94
2022-09-02T17:58:38.512Z,28.53
2022-09-02T18:01:04.697Z,28.16
2022-09-02T18:03:30.909Z,27.77
2022-09-02T18:05:57.100Z,27.61
2022-09-02T18:08:23.312Z,27.38
2022-09-02T18:10:51.869Z,27.07
2022-09-02T18:13:21.940Z,26.77
2022-09-02T18:15:48.078Z,26.55
2022-09-02T18:18:14.272Z,26.42
2022-09-02T18:20:40.450Z,26.10
2022-09-02T18:23:06.612Z,25.91
2022-09-02T18:25:32.760Z,25.76
2022-09-02T18:27:58.918Z,25.60
2022-09-02T18:30:25.067Z,25.43
2022-09-02T18:32:51.234Z,25.16
2022-09-02T18:35:17.567Z,25.03
2022-09-02T18:37:43.872Z,24.85
2022-09-02T18:40:10.071Z,24.80
2022-09-02T18:42:37.420Z,24.71
2022-09-02T18:45:03.571Z,24.47
2022-09-02T18:47:29.715Z,24.32
2022-09-02T18:49:56.210Z,24.18
2022-09-02T18:52:22.348Z,24.06
2022-09-02T18:54:48.484Z,23.93
2022-09-02T18:57:14.648Z,23.80
2022-09-02T18:59:40.772Z,23.70
2022-09-02T19:02:07.024Z,23.57
2022-09-02T19:04:33.267Z,23.46
2022-09-02T19:06:59.403Z,23.34
2022-09-02T19:09:25.540Z,23.28
2022-09-02T19:11:51.711Z,23.19
2022-09-02T19:14:17.859Z,23.01
2022-09-02T19:16:44.037Z,22.96
2022-09-02T19:19:10.301Z,22.81
2022-09-02T19:21:36.599Z,22.70
2022-09-02T19:24:02.960Z,22.73
2022-09-02T19:26:29.307Z,22.59
2022-09-02T19:28:55.643Z,22.51
2022-09-02T19:31:22.053Z,22.44
2022-09-02T19:33:48.243Z,22.32
2022-09-02T19:36:14.399Z,22.30
2022-09-02T19:38:40.543Z,22.11
2022-09-02T19:41:06.706Z,22.16
2022-09-02T19:43:32.844Z,22.02
2022-09-02T19:45:59.573Z,21.96
2022-09-02T19:48:25.832Z,21.82
2022-09-02T19:50:52.135Z,21.74
2022-09-02T19:53:18.264Z,21.70
2022-09-02T19:55:44.465Z,21.59
2022-09-02T19:58:10.593Z,21.46
2022-09-02T20:00:36.756Z,21.45
2022-09-02T20:03:03.032Z,21.43
2022-09-02T20:05:29.170Z,21.37
2022-09-02T20:07:55.333Z,21.27
2022-09-02T20:10:28.223Z,21.20
2022-09-02T20:12:56.244Z,21.14
2022-09-02T20:15:22.391Z,21.13
2022-09-02T20:17:48.548Z,21.11
2022-09-02T20:20:14.696Z,21.10
2022-09-02T20:22:41.206Z,20.95
2022-09-02T20:25:07.368Z,20.88
2022-09-02T20:27:33.514Z,20.82
2022-09-02T20:29:59.666Z,20.74
2022-09-02T20:32:25.788Z,20.67
2022-09-02T20:34:51.939Z,20.69
2022-09-02T20:37:18.081Z,20.69
2022-09-02T20:39:44.256Z,20.61
2022-09-02T20:42:10.575Z,20.55
2022-09-02T20:44:37.024Z,20.48
2022-09-02T20:47:03.210Z,20.41
2022-09-02T20:49:29.370Z,20.34
2022-09-02T20:51:55.900Z,20.36
2022-09-02T20:54:22.845Z,20.27
2022-09-02T20:56:48.970Z,20.26
2022-09-02T20:59:15.140Z,20.20
2022-09-02T21:01:41.300Z,20.19
2022-09-02T21:04:07.461Z,20.16
2022-09-02T21:06:33.649Z,20.04
2022-09-02T21:08:59.802Z,20.02
2022-09-02T21:11:26.502Z,19.97
2022-09-02T21:13:52.677Z,19.97
2022-09-02T21:16:19.784Z,19.92
2022-09-02T21:18:46.266Z,19.87
2022-09-02T21:21:12.433Z,19.87
2022-09-02T21:23:38.570Z,19.81
2022-09-02T21:26:04.707Z,19.68
2022-09-02T21:28:30.853Z,19.67
2022-09-02T21:30:56.972Z,19.64
2022-09-02T21:33:23.118Z,19.62
2022-09-02T21:35:49.281Z,19.55
2022-09-02T21:38:15.475Z,19.51
2022-09-02T21:40:41.657Z,19.52
2022-09-02T21:43:07.837Z,19.42
2022-09-02T21:45:33.985Z,19.39
2022-09-02T21:48:00.125Z,19.35
2022-09-02T21:50:26.294Z,19.21
2022-09-02T21:52:52.426Z,19.29
2022-09-02T21:55:18.565Z,19.33
2022-09-02T21:57:44.771Z,19.29
2022-09-02T22:00:10.909Z,19.29
2022-09-02T22:02:37.027Z,19.23
2022-09-02T22:05:04.636Z,19.20
2022-09-02T22:07:30.769Z,19.23
2022-09-02T22:09:56.918Z,19.07
2022-09-02T22:12:23.058Z,19.14
2022-09-02T22:14:49.198Z,19.09
2022-09-02T22:17:15.332Z,18.95
2022-09-02T22:19:41.499Z,19.03
2022-09-02T22:22:07.633Z,19.04
2022-09-02T22:24:33.770Z,18.98
2022-09-02T22:27:00.015Z,18.90
2022-09-02T22:29:26.180Z,18.89
2022-09-02T22:31:52.340Z,18.84
2022-09-02T22:34:18.536Z,18.76
2022-09-02T22:36:44.700Z,18.85
2022-09-02T22:39:13.715Z,18.80
2022-09-02T22:41:42.908Z,18.77
2022-09-02T22:44:09.063Z,18.80
2022-09-02T22:46:35.286Z,18.67
2022-09-02T22:49:01.476Z,18.72
2022-09-02T22:51:27.605Z,18.68
2022-09-02T22:53:53.750Z,18.72
2022-09-02T22:56:20.495Z,18.69
2022-09-02T22:58:46.651Z,18.66
2022-09-02T23:01:12.787Z,18.67
2022-09-02T23:03:39.042Z,18.56
2022-09-02T23:06:05.199Z,18.63
2022-09-02T23:08:31.383Z,18.55
2022-09-02T23:10:57.546Z,18.48
2022-09-02T23:13:23.714Z,18.43
2022-09-02T23:15:49.959Z,18.35
2022-09-02T23:18:16.169Z,18.40
2022-09-02T23:20:42.306Z,18.40
2022-09-02T23:23:08.450Z,18.36
2022-09-02T23:25:34.601Z,18.37
2022-09-02T23:28:00.747Z,18.31
2022-09-02T23:30:26.901Z,18.43
2022-09-02T23:32:55.780Z,18.38
2022-09-02T23:35:21.915Z,18.46
2022-09-02T23:37:48.047Z,18.38
2022-09-02T23:40:14.210Z,18.36
2022-09-02T23:42:40.360Z,18.39
2022-09-02T23:45:06.496Z,18.36
2022-09-02T23:47:33.659Z,18.36
2022-09-02T23:49:59.821Z,18.35
2022-09-02T23:52:25.985Z,18.33
2022-09-02T23:54:52.189Z,18.29
2022-09-02T23:57:18.370Z,18.28
2022-09-02T23:59:44.491Z,18.29
